Time;durP1;ratioP1;P1;durP2;ratioP2;P2;SDS_P1;SDS_P2;PMS_P1;PMS_P2;Temp;Humidity;BMP_temperature;BMP_pressure;BME280_temperature;BME280_humidity;BME280_pressure;Samples;Min_cycle;Max_cycle;Signal;HPM_P1;HPM_P2
2021/05/18 00:00:21;;;;;;;1.67;0.80;;;;;;;9.02;89.81;95617.03;1053123;28;20372;-48
2021/05/18 00:00:51;;;;;;;2.78;0.82;;;;;;;8.98;89.88;95615.78;1053112;28;20021;-49
2021/05/18 00:01:22;;;;;;;3.00;1.07;;;;;;;8.99;90.03;95622.66;1053015;28;20446;-48
2021/05/18 00:01:52;;;;;;;4.63;1.00;;;;;;;8.94;90.13;95615.34;1053304;28;20096;-48
2021/05/18 00:02:23;;;;;;;2.17;0.70;;;;;;;8.97;89.64;95619.41;1053224;28;20101;-49
2021/05/18 00:02:54;;;;;;;1.43;0.70;;;;;;;8.99;89.42;95625.28;1053392;28;20032;-48
2021/05/18 00:03:24;;;;;;;2.83;0.83;;;;;;;8.99;89.92;95609.53;1053325;28;20020;-48
2021/05/18 00:03:55;;;;;;;3.50;0.80;;;;;;;8.99;89.82;95609.53;1053355;28;20027;-49
2021/05/18 00:04:25;;;;;;;1.83;0.80;;;;;;;8.99;89.14;95614.78;1052875;28;20012;-48
2021/05/18 00:04:56;;;;;;;3.43;0.80;;;;;;;8.98;88.90;95621.03;1053169;28;20023;-49
2021/05/18 00:05:26;;;;;;;1.87;0.80;;;;;;;9.00;88.98;95619.84;1053092;28;20043;-48
2021/05/18 00:05:58;;;;;;;2.50;0.90;;;;;;;8.99;88.95;95615.59;1053172;28;20092;-48
2021/05/18 00:06:28;;;;;;;2.47;0.90;;;;;;;8.99;88.97;95615.59;1053321;28;20446;-47
2021/05/18 00:06:59;;;;;;;2.53;0.77;;;;;;;8.97;89.42;95622.03;1053497;28;20016;-53
2021/05/18 00:07:29;;;;;;;2.20;0.70;;;;;;;8.99;89.74;95614.78;1053408;28;20381;-48
2021/05/18 00:08:01;;;;;;;1.87;0.70;;;;;;;8.99;88.84;95618.22;1053480;28;20468;-49
2021/05/18 00:08:34;;;;;;;2.15;0.70;;;;;;;8.99;89.30;95623.47;1053334;28;20027;-47
2021/05/18 00:11:45;;;;;;;1.80;0.80;;;;;;;8.97;89.04;95614.16;1053408;28;20551;-49
2021/05/18 00:12:15;;;;;;;;;;;;;;;8.95;88.84;95622.22;1053714;28;20024;-48
2021/05/18 00:12:46;;;;;;;2.63;0.80;;;;;;;8.92;89.41;95614.75;1053164;28;19985;-48
2021/05/18 00:13:17;;;;;;;2.23;0.73;;;;;;;8.96;88.85;95623.88;1053179;28;20024;-48
2021/05/18 00:13:49;;;;;;;2.72;0.75;;;;;;;8.98;89.21;95618.41;1052849;28;20376;-47
2021/05/18 00:14:22;;;;;;;1.40;0.80;;;;;;;8.99;89.34;95622.66;1052686;28;20412;-48
2021/05/18 00:14:52;;;;;;;1.10;0.70;;;;;;;9.00;88.86;95635.59;1048529;28;20028;-51
2021/05/18 00:15:23;;;;;;;2.63;0.77;;;;;;;8.99;88.99;95620.03;1049328;28;20513;-49
2021/05/18 00:15:55;;;;;;;2.87;0.87;;;;;;;9.01;88.84;95620.63;1048636;28;20027;-47
2021/05/18 00:16:25;;;;;;;1.48;0.70;;;;;;;9.02;89.10;95627.53;1044604;28;20021;-48
2021/05/18 00:16:56;;;;;;;2.20;0.80;;;;;;;8.98;89.20;95628.91;1048682;28;20033;-47
2021/05/18 00:17:27;;;;;;;4.00;0.90;;;;;;;8.99;89.14;95630.53;1048854;28;20046;-47
2021/05/18 00:17:58;;;;;;;1.30;0.70;;;;;;;9.02;89.02;95643.28;1052829;28;20026;-48
2021/05/18 00:18:29;;;;;;;2.50;0.80;;;;;;;9.04;88.60;95630.75;1044268;28;20039;-49
2021/05/18 00:18:59;;;;;;;3.43;0.90;;;;;;;9.02;88.39;95624.91;1040340;28;20029;-51
2021/05/18 00:19:30;;;;;;;2.93;0.70;;;;;;;9.04;88.16;95630.75;1040372;28;20033;-48
2021/05/18 00:20:00;;;;;;;1.80;0.80;;;;;;;9.03;88.90;95623.88;1036418;28;20021;-50
2021/05/18 00:20:31;;;;;;;2.17;0.80;;;;;;;9.01;89.11;95637.19;1044739;28;20495;-49
2021/05/18 00:21:01;;;;;;;2.10;0.70;;;;;;;9.00;88.12;95625.09;1048659;28;20028;-47
2021/05/18 00:21:32;;;;;;;1.43;0.63;;;;;;;9.00;88.69;95624.25;1048686;28;20116;-49
2021/05/18 00:22:02;;;;;;;2.63;0.80;;;;;;;9.00;88.33;95634.78;1044490;28;20385;-49
2021/05/18 00:22:33;;;;;;;1.43;0.73;;;;;;;8.99;88.42;95643.69;1044523;28;20375;-50
2021/05/18 00:23:04;;;;;;;2.13;0.70;;;;;;;8.96;88.25;95639.63;1044531;28;20374;-48
2021/05/18 00:23:35;;;;;;;1.58;0.70;;;;;;;8.97;88.41;95635.97;1045206;28;20017;-54
2021/05/18 00:24:06;;;;;;;2.47;0.70;;;;;;;9.00;88.87;95626.88;1048534;28;20016;-48
2021/05/18 00:24:37;;;;;;;4.17;0.70;;;;;;;8.99;88.67;95630.53;1048723;28;20087;-48
2021/05/18 00:25:08;;;;;;;1.35;0.70;;;;;;;9.02;88.10;95635.41;1052755;28;20250;-48
2021/05/18 00:25:39;;;;;;;1.95;0.80;;;;;;;9.04;87.96;95633.38;1052960;28;20629;-50
2021/05/18 00:26:10;;;;;;;3.10;0.80;;;;;;;9.00;88.63;95632.16;1052959;28;20072;-49
2021/05/18 00:26:41;;;;;;;1.20;0.63;;;;;;;9.02;88.53;95632.78;1053257;28;20023;-48
2021/05/18 00:27:11;;;;;;;2.40;0.90;;;;;;;9.00;88.49;95634.78;1052926;28;20250;-48
2021/05/18 00:27:42;;;;;;;3.23;0.70;;;;;;;8.98;89.20;95639.41;1053158;28;20476;-51
2021/05/18 00:28:13;;;;;;;2.97;0.70;;;;;;;9.00;88.54;95634.78;1053511;28;20027;-48
2021/05/18 00:28:43;;;;;;;2.00;0.70;;;;;;;9.02;88.22;95632.78;1053119;28;20027;-50
2021/05/18 00:29:14;;;;;;;1.70;0.80;;;;;;;8.97;88.71;95635.16;1053418;28;20491;-49
2021/05/18 00:29:45;;;;;;;2.40;0.90;;;;;;;8.95;89.08;95637.97;1053573;28;20034;-49
2021/05/18 00:30:16;;;;;;;2.67;0.70;;;;;;;9.01;88.26;95644.28;1053752;28;20047;-48
2021/05/18 00:30:46;;;;;;;1.02;0.60;;;;;;;9.02;88.52;95638.03;1053372;28;20023;-48
2021/05/18 00:31:17;;;;;;;2.67;0.70;;;;;;;9.01;87.91;95641.66;1053052;28;20487;-48
2021/05/18 00:31:47;;;;;;;2.00;0.70;;;;;;;8.98;88.76;95648.09;1053155;28;20099;-48
2021/05/18 00:32:18;;;;;;;3.93;0.80;;;;;;;8.96;89.28;95631.75;1053107;28;20020;-49
2021/05/18 00:32:48;;;;;;;2.23;0.80;;;;;;;8.95;89.47;95639.81;1053249;28;20016;-48
2021/05/18 00:33:21;;;;;;;1.87;0.70;;;;;;;9.00;88.75;95646.09;1053497;28;20032;-48
2021/05/18 00:33:51;;;;;;;1.50;0.68;;;;;;;8.99;88.99;95633.97;1053700;28;20457;-48
2021/05/18 00:34:22;;;;;;;1.07;0.60;;;;;;;8.99;87.90;95646.28;1053206;28;20051;-52
2021/05/18 00:34:55;;;;;;;2.73;0.97;;;;;;;8.98;88.38;95645.47;1053248;28;20038;-48
2021/05/18 00:35:25;;;;;;;2.97;0.73;;;;;;;8.98;87.79;95637.59;1053334;28;20020;-48
2021/05/18 00:35:56;;;;;;;1.50;0.70;;;;;;;8.98;88.05;95640.22;1049019;28;20476;-50
2021/05/18 00:36:26;;;;;;;2.80;0.60;;;;;;;8.96;88.75;95647.50;1049537;28;20024;-48
2021/05/18 00:36:57;;;;;;;1.97;0.73;;;;;;;8.98;87.93;95636.78;1044790;28;20024;-48
2021/05/18 00:37:27;;;;;;;2.33;0.80;;;;;;;8.96;88.10;95647.50;1045311;28;20017;-50
2021/05/18 00:37:58;;;;;;;1.50;0.70;;;;;;;8.99;88.62;95648.91;1048952;28;20027;-48
2021/05/18 00:38:28;;;;;;;2.50;0.83;;;;;;;8.92;88.87;95633.13;1049296;28;20066;-48
2021/05/18 00:38:59;;;;;;;2.13;0.70;;;;;;;8.90;88.67;95637.78;1053686;28;20016;-48
2021/05/18 00:39:29;;;;;;;1.63;0.70;;;;;;;8.94;88.50;95631.09;1053844;28;20109;-48
2021/05/18 00:40:00;;;;;;;2.40;0.80;;;;;;;8.92;88.80;95635.75;1053669;28;20039;-50
2021/05/18 00:40:30;;;;;;;2.53;0.90;;;;;;;8.92;89.21;95634.94;1053680;28;20024;-48
2021/05/18 00:41:01;;;;;;;1.40;0.73;;;;;;;8.95;88.96;95637.19;1053373;28;20464;-50
2021/05/18 00:41:31;;;;;;;1.53;0.70;;;;;;;8.99;88.02;95649.72;1053153;28;20051;-48
2021/05/18 00:42:02;;;;;;;1.10;0.60;;;;;;;9.01;87.96;95637.19;1053574;28;20031;-51
2021/05/18 00:42:42;;;;;;;1.67;0.70;;;;;;;8.97;88.46;95640.41;1053280;28;20039;-48
2021/05/18 00:43:12;;;;;;;1.23;0.70;;;;;;;8.99;88.40;95646.28;1046571;28;20104;-49
2021/05/18 00:43:43;;;;;;;1.50;0.80;;;;;;;9.00;88.21;95640.84;1048930;28;20392;-48
2021/05/18 00:44:14;;;;;;;2.63;0.80;;;;;;;9.00;88.36;95638.22;1048787;28;20450;-47
2021/05/18 00:44:44;;;;;;;1.80;0.70;;;;;;;8.96;87.98;95641.41;1050317;28;20025;-46
2021/05/18 00:45:15;;;;;;;1.43;0.70;;;;;;;8.98;88.58;95652.53;1053490;28;20510;-47
2021/05/18 00:45:47;;;;;;;1.60;0.60;;;;;;;8.95;87.81;95645.88;1053420;28;20020;-46
2021/05/18 00:46:18;;;;;;;1.55;0.65;;;;;;;8.89;89.04;95650.06;1053597;28;20031;-48
2021/05/18 00:46:49;;;;;;;0.97;0.63;;;;;;;8.93;88.35;95650.50;1053640;28;20072;-49
2021/05/18 00:47:19;;;;;;;2.43;0.77;;;;;;;8.97;87.88;95645.66;1052990;28;20180;-47
2021/05/18 00:47:50;;;;;;;2.07;0.83;;;;;;;8.95;88.36;95643.25;1053201;28;20479;-48
2021/05/18 00:48:21;;;;;;;1.87;0.77;;;;;;;8.99;88.17;95648.91;1052948;28;20501;-48
2021/05/18 00:48:57;;;;;;;3.00;0.80;;;;;;;8.93;88.50;95650.50;1053231;28;20103;-47
2021/05/18 00:49:28;;;;;;;1.30;0.68;;;;;;;8.95;88.75;95642.44;1053563;28;20111;-46
2021/05/18 00:49:58;;;;;;;2.30;0.80;;;;;;;8.96;88.78;95644.03;1053567;28;20468;-47
2021/05/18 00:50:29;;;;;;;2.40;0.87;;;;;;;8.95;88.25;95645.06;1053567;28;20047;-51
2021/05/18 00:51:09;;;;;;;3.80;0.80;;;;;;;8.96;88.46;95649.28;1053393;28;20034;-48
2021/05/18 00:51:40;;;;;;;3.10;0.70;;;;;;;8.97;88.55;95646.47;1053537;28;20032;-50
2021/05/18 00:52:11;;;;;;;2.70;0.60;;;;;;;8.96;88.87;95651.91;1053191;28;20107;-47
2021/05/18 00:52:41;;;;;;;4.73;0.83;;;;;;;8.93;88.81;95642.63;1048960;28;20021;-49
2021/05/18 00:53:12;;;;;;;1.83;0.60;;;;;;;8.96;88.61;95650.13;1048848;28;20037;-46
2021/05/18 00:53:42;;;;;;;3.57;0.70;;;;;;;8.98;88.23;95647.28;1044842;28;20028;-47
2021/05/18 00:54:24;;;;;;;3.23;0.77;;;;;;;9.00;87.98;95642.66;1044895;28;20048;-48
2021/05/18 00:55:00;;;;;;;2.15;0.80;;;;;;;8.99;88.53;95648.91;1049106;28;20059;-47
2021/05/18 00:56:04;;;;;;;1.57;0.70;;;;;;;8.97;88.59;95656.16;1053256;28;20031;-48
2021/05/18 00:58:46;;;;;;;1.40;0.70;;;;;;;8.91;88.28;95647.25;1052970;28;20028;-50
2021/05/18 00:59:16;;;;;;;2.50;0.70;;;;;;;8.94;89.12;95648.69;1053462;28;20354;-51
2021/05/18 00:59:48;;;;;;;1.87;0.77;;;;;;;8.94;88.68;95656.56;1053222;28;20040;-50
2021/05/18 01:00:18;;;;;;;2.08;0.80;;;;;;;8.86;88.83;95649.66;1052974;28;20028;-48
2021/05/18 01:00:49;;;;;;;1.83;0.73;;;;;;;8.88;88.58;95652.91;1053116;28;20443;-48
2021/05/18 01:01:20;;;;;;;3.77;0.80;;;;;;;8.91;88.34;95657.75;1049172;28;20021;-48
2021/05/18 01:01:51;;;;;;;2.38;0.98;;;;;;;8.91;88.51;95652.50;1053111;28;20463;-48
2021/05/18 01:02:22;;;;;;;1.43;0.60;;;;;;;8.88;88.57;95647.66;1052820;28;20028;-48
2021/05/18 01:02:53;;;;;;;2.10;0.70;;;;;;;8.84;88.94;95651.69;1053070;28;20095;-47
2021/05/18 01:03:23;;;;;;;1.27;0.70;;;;;;;8.87;88.77;95669.69;1053215;28;20426;-47
2021/05/18 01:03:54;;;;;;;1.23;0.63;;;;;;;8.87;88.30;95654.72;1053387;28;20016;-48
2021/05/18 01:04:24;;;;;;;4.90;0.70;;;;;;;8.86;88.42;95660.16;1053208;28;20081;-47
2021/05/18 01:05:07;;;;;;;1.43;0.70;;;;;;;8.87;89.07;95657.34;1053070;28;20027;-50
2021/05/18 01:06:58;;;;;;;1.98;0.80;;;;;;;8.89;88.73;95654.53;1053467;28;20016;-49
2021/05/18 01:07:28;;;;;;;6.73;1.33;;;;;;;8.87;88.71;95654.72;1053130;28;20016;-48
2021/05/18 01:07:59;;;;;;;2.37;0.77;;;;;;;8.87;88.78;95662.59;1053305;28;20057;-48
2021/05/18 01:08:30;;;;;;;2.87;0.73;;;;;;;8.79;89.72;95654.06;1053213;28;20027;-48
2021/05/18 01:09:10;;;;;;;1.87;0.70;;;;;;;8.82;89.35;95658.94;1053285;28;20047;-47
2021/05/18 01:09:41;;;;;;;2.00;0.75;;;;;;;8.85;89.07;95651.50;1053172;28;20116;-51
2021/05/18 01:10:12;;;;;;;1.03;0.63;;;;;;;8.85;89.19;95662.00;1053212;28;20012;-46
2021/05/18 01:10:43;;;;;;;1.30;0.60;;;;;;;8.82;89.11;95665.00;1053173;28;20027;-47
2021/05/18 01:11:14;;;;;;;2.70;0.77;;;;;;;8.81;89.21;95652.09;1053301;28;20023;-48
2021/05/18 01:11:47;;;;;;;2.80;0.82;;;;;;;8.85;89.27;95654.13;1053301;28;20020;-49
2021/05/18 01:12:18;;;;;;;2.58;0.80;;;;;;;8.86;89.16;95655.72;1053240;28;20022;-48
2021/05/18 01:12:48;;;;;;;1.83;0.80;;;;;;;8.85;89.31;95648.03;1053359;28;20031;-48
2021/05/18 01:13:18;;;;;;;2.00;0.90;;;;;;;8.84;89.16;95655.13;1052875;28;20145;-49
2021/05/18 01:13:55;;;;;;;2.23;0.80;;;;;;;8.86;89.55;95660.16;1052859;28;20051;-48
2021/05/18 01:14:26;;;;;;;2.67;0.80;;;;;;;8.86;89.57;95660.97;1052788;28;20031;-48
2021/05/18 01:14:56;;;;;;;2.37;0.80;;;;;;;8.84;89.76;95655.13;1052909;28;20012;-49
2021/05/18 01:15:27;;;;;;;1.73;0.73;;;;;;;8.85;90.00;95655.91;1052995;28;20035;-50
2021/05/18 01:15:57;;;;;;;2.73;0.73;;;;;;;8.86;88.97;95655.72;1052923;28;20483;-51
2021/05/18 01:16:30;;;;;;;1.20;0.60;;;;;;;8.84;88.91;95660.38;1052931;28;20546;-48
2021/05/18 01:17:00;;;;;;;2.20;0.73;;;;;;;8.84;89.15;95663.00;1052845;28;20103;-48
2021/05/18 01:17:30;;;;;;;1.63;0.70;;;;;;;8.84;88.88;95657.75;1053157;28;20059;-48
2021/05/18 01:18:01;;;;;;;1.13;0.70;;;;;;;8.81;89.87;95652.88;1053119;28;20035;-48
2021/05/18 01:18:36;;;;;;;2.60;0.80;;;;;;;8.84;89.35;95657.75;1052976;28;20440;-49
2021/05/18 01:19:06;;;;;;;3.08;0.80;;;;;;;8.78;89.89;95669.03;1048689;28;20073;-48
2021/05/18 01:19:37;;;;;;;2.67;0.90;;;;;;;8.78;89.59;95653.28;1044566;28;20129;-48
2021/05/18 01:20:11;;;;;;;1.63;0.80;;;;;;;8.78;89.19;95655.09;1045153;28;20017;-48
2021/05/18 01:20:42;;;;;;;1.30;0.70;;;;;;;8.77;89.79;95662.13;1049283;28;20023;-49
2021/05/18 01:21:13;;;;;;;1.40;0.75;;;;;;;8.75;89.68;95661.53;1052807;28;20027;-48
2021/05/18 01:21:44;;;;;;;1.90;0.70;;;;;;;8.79;90.10;95654.06;1053154;28;20372;-48
2021/05/18 01:22:14;;;;;;;1.67;0.70;;;;;;;8.69;90.28;95650.00;1053278;28;20020;-50
2021/05/18 01:22:46;;;;;;;1.17;0.70;;;;;;;8.72;89.93;95654.06;1053028;28;20012;-48
2021/05/18 01:23:16;;;;;;;1.35;0.70;;;;;;;8.69;90.75;95647.38;1052884;28;20532;-49
2021/05/18 01:23:47;;;;;;;2.33;0.73;;;;;;;8.71;90.89;95645.38;1052958;28;20032;-50
2021/05/18 01:24:19;;;;;;;4.87;0.80;;;;;;;8.68;90.78;95653.63;1052584;28;20350;-50
2021/05/18 01:24:49;;;;;;;1.98;0.70;;;;;;;8.72;90.29;95659.31;1053145;28;20019;-50
2021/05/18 01:25:20;;;;;;;2.33;0.80;;;;;;;8.72;90.67;95669.81;1053353;28;20016;-48
2021/05/18 01:25:51;;;;;;;3.90;0.80;;;;;;;8.71;89.28;95652.41;1053170;28;20020;-47
2021/05/18 01:26:21;;;;;;;2.00;0.70;;;;;;;8.70;89.32;95653.44;1053116;28;20020;-48
2021/05/18 01:26:52;;;;;;;2.23;0.70;;;;;;;8.67;90.12;95657.25;1053113;28;20016;-48
2021/05/18 01:27:22;;;;;;;1.20;0.60;;;;;;;8.70;89.51;95658.69;1053096;28;20496;-50
2021/05/18 01:27:53;;;;;;;0.87;0.60;;;;;;;8.69;89.40;95655.25;1053292;28;20051;-49
2021/05/18 01:28:24;;;;;;;2.00;0.73;;;;;;;8.66;89.67;95650.38;1053146;28;20020;-49
2021/05/18 01:28:54;;;;;;;1.25;0.63;;;;;;;8.65;90.06;95645.31;1052884;28;20035;-48
2021/05/18 01:29:25;;;;;;;2.33;0.70;;;;;;;8.67;89.71;95651.19;1048572;28;20059;-49
2021/05/18 01:29:55;;;;;;;1.23;0.70;;;;;;;8.63;90.11;95648.16;1048391;28;20043;-48
2021/05/18 01:30:26;;;;;;;2.83;0.70;;;;;;;8.65;90.11;95655.81;1048418;28;20005;-48
2021/05/18 01:30:56;;;;;;;1.90;0.73;;;;;;;8.63;90.06;95650.78;1048761;28;20020;-48
2021/05/18 01:31:27;;;;;;;2.97;0.67;;;;;;;8.63;90.01;95655.22;1053073;28;20444;-48
2021/05/18 01:31:58;;;;;;;2.30;0.80;;;;;;;8.57;89.91;95656.78;1052756;28;20107;-48
2021/05/18 01:32:28;;;;;;;1.90;0.70;;;;;;;8.57;90.22;95654.16;1052964;28;20066;-52
2021/05/18 01:32:59;;;;;;;1.63;0.70;;;;;;;8.60;89.99;95653.78;1053065;28;20012;-49
2021/05/18 01:33:29;;;;;;;1.63;0.80;;;;;;;8.60;90.48;95653.78;1053187;28;20663;-49
2021/05/18 01:34:01;;;;;;;2.67;0.90;;;;;;;8.57;90.39;95659.41;1053106;28;20023;-49
2021/05/18 01:34:31;;;;;;;1.63;0.70;;;;;;;8.52;90.28;95648.72;1053006;28;20122;-49
2021/05/18 01:35:03;;;;;;;5.03;0.90;;;;;;;8.57;90.50;95654.16;1053160;28;20059;-47
2021/05/18 01:35:33;;;;;;;2.95;0.75;;;;;;;8.58;90.38;95657.59;1052703;28;20012;-48
2021/05/18 01:36:07;;;;;;;3.47;0.80;;;;;;;8.57;90.42;95648.94;1044531;28;20458;-48
2021/05/18 01:36:38;;;;;;;2.28;0.80;;;;;;;8.58;90.58;95657.59;1044519;28;20143;-47
2021/05/18 01:37:08;;;;;;;1.90;0.87;;;;;;;8.58;91.13;95657.59;1045111;28;20142;-47
2021/05/18 01:37:40;;;;;;;1.53;0.70;;;;;;;8.61;90.41;95658.03;1049363;28;20045;-47
2021/05/18 01:38:13;;;;;;;1.05;0.70;;;;;;;8.58;90.53;95658.44;1052953;28;20051;-48
2021/05/18 01:39:08;;;;;;;1.30;0.70;;;;;;;8.59;90.76;95669.72;1053243;28;20023;-48
2021/05/18 01:42:44;;;;;;;1.67;0.70;;;;;;;8.56;91.04;95664.88;1052832;28;20027;-49
2021/05/18 01:42:49;;;;;;;0.90;0.60;;;;;;;8.56;90.60;95668.28;1052809;28;20073;-49
2021/05/18 01:43:20;;;;;;;1.33;0.73;;;;;;;8.56;91.04;95672.72;1052618;28;20020;-48
2021/05/18 01:43:57;;;;;;;1.17;0.60;;;;;;;8.52;90.40;95667.06;1052775;28;20099;-47
2021/05/18 01:44:27;;;;;;;1.58;0.70;;;;;;;8.52;90.46;95664.44;1052531;28;20020;-48
2021/05/18 01:44:58;;;;;;;1.87;0.70;;;;;;;8.48;91.30;95657.97;1052804;28;20101;-48
2021/05/18 01:45:29;;;;;;;1.77;0.80;;;;;;;8.49;91.59;95665.63;1053126;28;20062;-49
2021/05/18 01:46:00;;;;;;;3.42;0.85;;;;;;;8.50;90.80;95672.50;1052608;28;20023;-47
2021/05/18 01:46:31;;;;;;;2.30;0.90;;;;;;;8.50;90.82;95671.69;1052661;28;20035;-48
2021/05/18 01:47:01;;;;;;;1.83;0.73;;;;;;;8.50;91.11;95669.06;1052903;28;20019;-47
2021/05/18 01:47:32;;;;;;;1.38;0.70;;;;;;;8.43;91.45;95670.81;1052655;28;20012;-51
2021/05/18 01:48:07;;;;;;;2.23;0.80;;;;;;;8.48;91.05;95671.06;1052905;28;20043;-48
2021/05/18 01:48:37;;;;;;;1.92;0.80;;;;;;;8.45;91.31;95674.88;1048321;28;20091;-50
2021/05/18 01:49:09;;;;;;;2.70;0.83;;;;;;;8.49;90.88;95676.13;1048649;28;20027;-48
2021/05/18 01:49:40;;;;;;;1.33;0.70;;;;;;;8.48;90.84;95677.13;1048599;28;20074;-50
2021/05/18 01:50:10;;;;;;;1.77;0.70;;;;;;;8.47;91.14;95678.16;1045391;28;20013;-47
2021/05/18 01:50:44;;;;;;;2.30;0.80;;;;;;;8.40;91.59;95671.22;1052686;28;20043;-48
2021/05/18 01:51:15;;;;;;;1.70;0.75;;;;;;;8.45;91.46;95674.09;1052678;28;20042;-47
2021/05/18 01:51:50;;;;;;;3.00;0.80;;;;;;;8.47;90.75;95672.06;1052922;28;20035;-47
2021/05/18 01:52:20;;;;;;;3.15;0.80;;;;;;;8.48;90.99;95664.00;1053130;28;20065;-48
2021/05/18 01:52:51;;;;;;;1.53;0.73;;;;;;;8.48;90.96;95677.13;1053141;28;20012;-51
2021/05/18 01:53:22;;;;;;;2.07;0.80;;;;;;;8.46;90.89;95670.47;1053168;28;20016;-50
2021/05/18 01:53:53;;;;;;;2.20;0.80;;;;;;;8.45;91.39;95680.13;1053151;28;20360;-47
2021/05/18 01:54:26;;;;;;;2.25;0.60;;;;;;;8.43;91.68;95673.44;1052860;28;20102;-48
2021/05/18 01:54:57;;;;;;;1.15;0.70;;;;;;;8.45;91.07;95674.88;1053122;28;20146;-50
2021/05/18 01:55:34;;;;;;;3.33;0.83;;;;;;;8.49;90.90;95677.97;1053150;28;20036;-47
2021/05/18 01:56:46;;;;;;;2.28;0.70;;;;;;;8.47;91.02;95678.16;1052670;28;20008;-48
2021/05/18 01:57:20;;;;;;;1.83;0.70;;;;;;;8.49;90.83;95677.97;1052816;28;20529;-49
2021/05/18 01:57:51;;;;;;;1.70;0.80;;;;;;;8.44;90.89;95677.72;1052597;28;20107;-48
2021/05/18 01:58:23;;;;;;;2.67;0.90;;;;;;;8.45;91.62;95677.50;1052953;28;20016;-46
2021/05/18 01:58:53;;;;;;;2.58;0.90;;;;;;;8.48;91.06;95676.31;1053029;28;20047;-47
2021/05/18 01:59:24;;;;;;;2.83;0.80;;;;;;;8.47;91.44;95674.69;1052965;28;20023;-48
2021/05/18 01:59:54;;;;;;;2.03;0.73;;;;;;;8.50;90.92;95671.69;1053274;28;20008;-48
2021/05/18 02:00:27;;;;;;;1.37;0.63;;;;;;;8.45;91.11;95676.72;1053054;28;20012;-50
2021/05/18 02:00:57;;;;;;;2.40;0.80;;;;;;;8.45;91.95;95684.59;1053254;28;20015;-49
2021/05/18 02:01:28;;;;;;;3.43;0.90;;;;;;;8.45;91.10;95674.88;1053027;28;20019;-47
2021/05/18 02:02:02;;;;;;;1.43;0.80;;;;;;;8.50;90.93;95676.94;1053159;28;20061;-50
2021/05/18 02:02:32;;;;;;;3.35;1.00;;;;;;;8.47;91.55;95678.16;1053216;28;20116;-51
2021/05/18 02:03:03;;;;;;;2.13;1.00;;;;;;;8.47;91.55;95677.31;1052999;28;20071;-51
2021/05/18 02:03:33;;;;;;;2.37;0.70;;;;;;;8.42;91.35;95680.50;1052889;28;20023;-48
2021/05/18 02:04:04;;;;;;;4.07;0.90;;;;;;;8.45;91.55;95674.09;1053116;28;20027;-49
2021/05/18 02:04:43;;;;;;;1.70;0.80;;;;;;;8.47;91.44;95675.53;1052496;28;20030;-48
2021/05/18 02:05:14;;;;;;;3.03;0.80;;;;;;;8.52;90.98;95677.56;1052687;28;20023;-48
2021/05/18 02:05:45;;;;;;;1.52;0.70;;;;;;;8.53;91.40;95676.53;1048708;28;20102;-50
2021/05/18 02:06:16;;;;;;;3.37;0.90;;;;;;;8.53;91.30;95672.13;1049995;28;20024;-48
2021/05/18 02:06:46;;;;;;;1.90;0.90;;;;;;;8.49;91.17;95681.38;1052740;28;20043;-49
2021/05/18 02:07:19;;;;;;;4.17;0.80;;;;;;;8.51;90.88;95678.56;1052886;28;20426;-48
2021/05/18 02:07:51;;;;;;;2.60;0.80;;;;;;;8.48;91.51;95673.69;1052969;28;20048;-47
2021/05/18 02:08:21;;;;;;;2.15;0.85;;;;;;;8.48;91.09;95677.13;1053086;28;20524;-48
2021/05/18 02:08:52;;;;;;;1.87;0.70;;;;;;;8.46;91.52;95687.00;1053152;28;20052;-47
2021/05/18 02:09:22;;;;;;;3.70;1.07;;;;;;;8.52;91.05;95682.81;1053173;28;20078;-48
2021/05/18 02:09:53;;;;;;;1.20;0.70;;;;;;;8.51;91.24;95682.00;1052925;28;20016;-50
2021/05/18 02:10:24;;;;;;;1.80;0.70;;;;;;;8.56;91.65;95680.59;1053141;28;20020;-49
2021/05/18 02:10:54;;;;;;;4.05;1.20;;;;;;;8.53;91.21;95682.63;1053081;28;20049;-49
2021/05/18 02:11:25;;;;;;;2.30;0.80;;;;;;;8.54;90.91;95684.22;1052655;28;20158;-49
2021/05/18 02:11:55;;;;;;;1.27;0.73;;;;;;;8.56;90.69;95696.34;1052772;28;20088;-51
2021/05/18 02:12:26;;;;;;;2.63;1.00;;;;;;;8.57;91.09;95692.72;1052794;28;20019;-49
2021/05/18 02:12:56;;;;;;;1.53;0.77;;;;;;;8.57;91.26;95690.09;1052673;28;20381;-49
2021/05/18 02:13:27;;;;;;;2.07;0.87;;;;;;;8.54;91.29;95678.19;1052954;28;20016;-48
2021/05/18 02:14:01;;;;;;;2.00;1.03;;;;;;;8.55;91.30;95682.44;1053038;28;20065;-49
2021/05/18 02:14:33;;;;;;;2.75;0.90;;;;;;;8.54;91.41;95692.09;1052864;28;20024;-48
2021/05/18 02:15:18;;;;;;;1.45;0.73;;;;;;;8.53;91.84;95692.28;1052698;28;20099;-48
2021/05/18 02:16:25;;;;;;;1.50;0.80;;;;;;;8.51;91.97;95687.22;1053026;28;20028;-48
2021/05/18 02:16:45;;;;;;;2.17;0.80;;;;;;;8.53;91.76;95681.78;1051442;28;20131;-51
2021/05/18 02:17:25;;;;;;;7.27;0.90;;;;;;;8.53;91.82;95684.41;1053647;28;20023;-49
2021/05/18 02:19:44;;;;;;;3.67;0.93;;;;;;;8.43;93.50;95695.25;1052810;28;20380;-48
2021/05/18 02:20:56;;;;;;;2.27;0.73;;;;;;;8.40;93.61;95693.00;1052802;28;20603;-48
2021/05/18 02:25:02;;;;;;;3.10;1.00;;;;;;;8.35;95.03;95701.44;1052521;28;20008;-47
2021/05/18 02:25:33;;;;;;;2.38;1.00;;;;;;;8.35;95.69;95695.38;1052499;28;20023;-47
2021/05/18 02:26:03;;;;;;;2.10;0.90;;;;;;;8.34;95.15;95694.56;1052637;28;20452;-48
2021/05/18 02:26:34;;;;;;;4.30;0.87;;;;;;;8.38;95.03;95688.94;1052638;28;20012;-48
2021/05/18 02:27:04;;;;;;;1.77;0.80;;;;;;;8.37;95.78;95693.38;1052608;28;20091;-48
2021/05/18 02:27:35;;;;;;;3.53;0.90;;;;;;;8.36;95.62;95703.03;1052779;28;20012;-47
2021/05/18 02:28:07;;;;;;;3.97;0.90;;;;;;;8.38;95.46;95695.00;1052462;28;20396;-48
2021/05/18 02:28:38;;;;;;;1.90;0.80;;;;;;;8.35;96.03;95698.00;1052564;28;20020;-47
2021/05/18 02:29:08;;;;;;;1.63;0.87;;;;;;;8.39;95.73;95695.81;1048514;28;20034;-46
2021/05/18 02:29:39;;;;;;;2.70;0.80;;;;;;;8.38;95.84;95696.81;1048871;28;20016;-46
2021/05/18 02:30:10;;;;;;;1.83;0.73;;;;;;;8.35;95.50;95700.63;1052715;28;20024;-48
2021/05/18 02:30:40;;;;;;;1.80;0.80;;;;;;;8.36;96.47;95697.00;1052749;28;20084;-48
2021/05/18 02:31:11;;;;;;;3.20;0.87;;;;;;;8.34;96.42;95702.44;1052476;28;20384;-49
2021/05/18 02:31:42;;;;;;;1.63;0.90;;;;;;;8.37;96.01;95693.38;1052676;28;20077;-48
2021/05/18 02:32:13;;;;;;;2.97;0.80;;;;;;;8.37;96.28;95696.00;1052607;28;20103;-49
2021/05/18 02:32:43;;;;;;;1.87;0.80;;;;;;;8.37;96.54;95698.63;1052641;28;20024;-49
2021/05/18 02:33:14;;;;;;;3.57;1.23;;;;;;;8.32;96.43;95708.88;1052630;28;20026;-48
2021/05/18 02:33:50;;;;;;;2.17;0.90;;;;;;;8.33;96.83;95697.38;1052508;28;20081;-48
2021/05/18 02:34:21;;;;;;;2.20;0.80;;;;;;;8.35;96.60;95700.63;1052439;28;20050;-49
2021/05/18 02:34:51;;;;;;;2.17;0.80;;;;;;;8.37;96.88;95706.50;1049346;28;20070;-47
2021/05/18 02:35:22;;;;;;;3.03;0.83;;;;;;;8.37;96.62;95703.88;1048527;28;20054;-47
2021/05/18 02:35:52;;;;;;;2.10;0.93;;;;;;;8.36;96.31;95703.03;1048446;28;20472;-47
2021/05/18 02:36:24;;;;;;;1.87;0.90;;;;;;;8.36;96.93;95700.41;1048343;28;20071;-47
2021/05/18 02:36:55;;;;;;;3.10;0.90;;;;;;;8.35;97.22;95700.63;1052595;28;20031;-48
2021/05/18 02:37:25;;;;;;;2.03;0.90;;;;;;;8.30;97.56;95697.75;1053079;28;20503;-47
2021/05/18 02:37:56;;;;;;;2.77;0.90;;;;;;;8.34;97.65;95704.25;1052636;28;20020;-48
2021/05/18 02:38:26;;;;;;;4.60;1.00;;;;;;;8.34;97.80;95699.00;1052740;28;20433;-48
2021/05/18 02:38:57;;;;;;;2.00;0.93;;;;;;;8.26;97.98;95694.72;1052552;28;20044;-47
2021/05/18 02:39:27;;;;;;;1.53;0.80;;;;;;;8.28;98.28;95697.16;1048446;28;20467;-51
2021/05/18 02:39:58;;;;;;;3.07;1.10;;;;;;;8.33;97.60;95698.19;1052663;28;20040;-47
2021/05/18 02:40:30;;;;;;;2.80;0.93;;;;;;;8.33;97.69;95706.06;1048455;28;20021;-47
2021/05/18 02:41:01;;;;;;;3.33;0.90;;;;;;;8.27;97.75;95700.78;1048798;28;20508;-48
2021/05/18 02:41:31;;;;;;;2.10;0.90;;;;;;;8.29;97.95;95696.13;1048742;28;20034;-48
2021/05/18 02:42:02;;;;;;;3.17;0.90;;;;;;;8.31;98.49;95694.16;1045378;28;20119;-47
2021/05/18 02:42:32;;;;;;;1.27;0.70;;;;;;;8.21;98.61;95699.72;1045045;28;20401;-48
2021/05/18 02:43:03;;;;;;;2.80;0.90;;;;;;;8.30;98.65;95703.00;1045133;28;20017;-48
2021/05/18 02:43:42;;;;;;;1.30;0.73;;;;;;;8.26;98.33;95704.38;1049416;28;20130;-47
2021/05/18 02:44:29;;;;;;;2.60;0.82;;;;;;;8.25;99.10;95693.09;1053400;28;20028;-50
2021/05/18 02:45:11;;;;;;;1.90;0.80;;;;;;;8.26;98.50;95691.28;1053816;28;20532;-49
2021/05/18 02:49:25;;;;;;;2.00;0.98;;;;;;;8.27;98.72;95700.78;1053790;28;20020;-49
2021/05/18 02:49:55;;;;;;;3.67;0.90;;;;;;;8.28;98.29;95692.72;1053342;28;20012;-47
2021/05/18 02:50:27;;;;;;;3.13;1.00;;;;;;;8.27;98.30;95698.16;1053507;28;20469;-47